sensor_id;sensor_type;location;lat;lon;timestamp;P1;durP1;ratioP1;P2;durP2;ratioP2
13028;SDS011;6581;42.662;23.402;2022-08-14T00:00:25;18.20;;;16.38;;
13028;SDS011;6581;42.662;23.402;2022-08-14T00:02:53;18.85;;;16.95;;
13028;SDS011;6581;42.662;23.402;2022-08-14T00:05:20;18.85;;;16.85;;
13028;SDS011;6581;42.662;23.402;2022-08-14T00:07:48;19.23;;;16.05;;
13028;SDS011;6581;42.662;23.402;2022-08-14T00:10:17;16.83;;;15.23;;
13028;SDS011;6581;42.662;23.402;2022-08-14T00:12:49;18.58;;;15.25;;
13028;SDS011;6581;42.662;23.402;2022-08-14T00:15:20;16.83;;;15.10;;
13028;SDS011;6581;42.662;23.402;2022-08-14T00:17:50;17.42;;;15.60;;
13028;SDS011;6581;42.662;23.402;2022-08-14T00:20:18;16.30;;;14.80;;
13028;SDS011;6581;42.662;23.402;2022-08-14T00:22:47;16.83;;;15.13;;
13028;SDS011;6581;42.662;23.402;2022-08-14T00:25:14;15.70;;;14.23;;
13028;SDS011;6581;42.662;23.402;2022-08-14T00:27:42;16.75;;;15.15;;
13028;SDS011;6581;42.662;23.402;2022-08-14T00:30:11;16.17;;;14.60;;
13028;SDS011;6581;42.662;23.402;2022-08-14T00:32:40;15.75;;;14.13;;
13028;SDS011;6581;42.662;23.402;2022-08-14T00:35:08;15.02;;;13.52;;
13028;SDS011;6581;42.662;23.402;2022-08-14T00:37:36;16.63;;;14.90;;
13028;SDS011;6581;42.662;23.402;2022-08-14T00:40:06;16.15;;;14.55;;
13028;SDS011;6581;42.662;23.402;2022-08-14T00:42:34;16.63;;;14.93;;
13028;SDS011;6581;42.662;23.402;2022-08-14T00:45:02;16.98;;;15.18;;
13028;SDS011;6581;42.662;23.402;2022-08-14T00:47:32;15.25;;;13.85;;
13028;SDS011;6581;42.662;23.402;2022-08-14T00:50:00;16.17;;;14.57;;
13028;SDS011;6581;42.662;23.402;2022-08-14T00:52:28;15.07;;;13.68;;
13028;SDS011;6581;42.662;23.402;2022-08-14T00:54:57;14.65;;;13.30;;
13028;SDS011;6581;42.662;23.402;2022-08-14T00:57:25;14.07;;;12.77;;
13028;SDS011;6581;42.662;23.402;2022-08-14T00:59:53;15.65;;;13.90;;
13028;SDS011;6581;42.662;23.402;2022-08-14T01:02:21;14.50;;;13.13;;
13028;SDS011;6581;42.662;23.402;2022-08-14T01:04:52;18.77;;;13.93;;
13028;SDS011;6581;42.662;23.402;2022-08-14T01:07:22;15.52;;;14.02;;
13028;SDS011;6581;42.662;23.402;2022-08-14T01:09:51;15.27;;;13.75;;
13028;SDS011;6581;42.662;23.402;2022-08-14T01:12:20;15.73;;;14.05;;
13028;SDS011;6581;42.662;23.402;2022-08-14T01:14:48;15.27;;;13.88;;
13028;SDS011;6581;42.662;23.402;2022-08-14T01:17:19;16.65;;;13.80;;
13028;SDS011;6581;42.662;23.402;2022-08-14T01:19:47;16.05;;;14.43;;
13028;SDS011;6581;42.662;23.402;2022-08-14T01:22:58;14.63;;;13.27;;
13028;SDS011;6581;42.662;23.402;2022-08-14T01:25:26;15.45;;;13.98;;
13028;SDS011;6581;42.662;23.402;2022-08-14T01:27:53;15.85;;;14.30;;
13028;SDS011;6581;42.662;23.402;2022-08-14T01:30:22;15.32;;;13.82;;
13028;SDS011;6581;42.662;23.402;2022-08-14T01:32:51;16.40;;;14.75;;
13028;SDS011;6581;42.662;23.402;2022-08-14T01:35:19;17.55;;;15.63;;
13028;SDS011;6581;42.662;23.402;2022-08-14T01:37:47;15.90;;;14.25;;
13028;SDS011;6581;42.662;23.402;2022-08-14T01:40:16;15.48;;;13.70;;
13028;SDS011;6581;42.662;23.402;2022-08-14T01:42:45;15.88;;;14.35;;
13028;SDS011;6581;42.662;23.402;2022-08-14T01:45:13;16.35;;;14.35;;
13028;SDS011;6581;42.662;23.402;2022-08-14T01:47:40;16.40;;;14.80;;
13028;SDS011;6581;42.662;23.402;2022-08-14T01:50:08;17.80;;;15.95;;
13028;SDS011;6581;42.662;23.402;2022-08-14T01:52:36;19.90;;;15.45;;
13028;SDS011;6581;42.662;23.402;2022-08-14T01:55:05;18.25;;;16.27;;
13028;SDS011;6581;42.662;23.402;2022-08-14T01:57:38;17.85;;;16.23;;
13028;SDS011;6581;42.662;23.402;2022-08-14T02:00:11;17.20;;;15.50;;
13028;SDS011;6581;42.662;23.402;2022-08-14T02:02:43;18.15;;;16.20;;
13028;SDS011;6581;42.662;23.402;2022-08-14T02:05:11;18.40;;;16.45;;
13028;SDS011;6581;42.662;23.402;2022-08-14T02:07:39;19.05;;;16.83;;
13028;SDS011;6581;42.662;23.402;2022-08-14T02:10:08;19.15;;;16.98;;
13028;SDS011;6581;42.662;23.402;2022-08-14T02:12:38;18.10;;;16.30;;
13028;SDS011;6581;42.662;23.402;2022-08-14T02:15:06;20.83;;;16.67;;
13028;SDS011;6581;42.662;23.402;2022-08-14T02:17:35;20.98;;;17.25;;
13028;SDS011;6581;42.662;23.402;2022-08-14T02:20:03;17.73;;;15.93;;
13028;SDS011;6581;42.662;23.402;2022-08-14T02:22:32;19.17;;;17.13;;
13028;SDS011;6581;42.662;23.402;2022-08-14T02:25:01;18.63;;;16.73;;
13028;SDS011;6581;42.662;23.402;2022-08-14T02:27:29;19.98;;;17.63;;
13028;SDS011;6581;42.662;23.402;2022-08-14T02:29:58;19.55;;;17.38;;
13028;SDS011;6581;42.662;23.402;2022-08-14T02:32:51;19.88;;;18.00;;
13028;SDS011;6581;42.662;23.402;2022-08-14T02:35:19;20.63;;;18.30;;
13028;SDS011;6581;42.662;23.402;2022-08-14T02:37:50;19.45;;;17.35;;
13028;SDS011;6581;42.662;23.402;2022-08-14T02:40:18;22.50;;;18.08;;
13028;SDS011;6581;42.662;23.402;2022-08-14T02:42:47;21.15;;;18.92;;
13028;SDS011;6581;42.662;23.402;2022-08-14T02:45:16;19.77;;;17.73;;
13028;SDS011;6581;42.662;23.402;2022-08-14T02:47:43;18.35;;;16.48;;
13028;SDS011;6581;42.662;23.402;2022-08-14T02:50:10;19.02;;;15.77;;
13028;SDS011;6581;42.662;23.402;2022-08-14T02:52:37;19.48;;;17.42;;
13028;SDS011;6581;42.662;23.402;2022-08-14T02:55:06;19.25;;;17.25;;
13028;SDS011;6581;42.662;23.402;2022-08-14T02:57:33;20.13;;;17.55;;
13028;SDS011;6581;42.662;23.402;2022-08-14T03:00:03;19.70;;;17.67;;
13028;SDS011;6581;42.662;23.402;2022-08-14T03:02:32;19.52;;;17.33;;
13028;SDS011;6581;42.662;23.402;2022-08-14T03:05:00;19.45;;;17.45;;
13028;SDS011;6581;42.662;23.402;2022-08-14T03:07:27;18.67;;;16.75;;
13028;SDS011;6581;42.662;23.402;2022-08-14T03:12:47;32.83;;;24.85;;
13028;SDS011;6581;42.662;23.402;2022-08-14T03:15:15;32.45;;;25.05;;
13028;SDS011;6581;42.662;23.402;2022-08-14T03:17:43;36.15;;;26.20;;
13028;SDS011;6581;42.662;23.402;2022-08-14T03:20:12;32.58;;;24.58;;
13028;SDS011;6581;42.662;23.402;2022-08-14T03:22:39;31.25;;;24.27;;
13028;SDS011;6581;42.662;23.402;2022-08-14T03:25:07;28.33;;;23.75;;
13028;SDS011;6581;42.662;23.402;2022-08-14T03:27:36;24.92;;;20.70;;
13028;SDS011;6581;42.662;23.402;2022-08-14T03:30:05;23.70;;;20.77;;
13028;SDS011;6581;42.662;23.402;2022-08-14T03:32:33;23.50;;;20.48;;
13028;SDS011;6581;42.662;23.402;2022-08-14T03:35:02;22.48;;;20.08;;
13028;SDS011;6581;42.662;23.402;2022-08-14T03:37:30;22.42;;;20.02;;
13028;SDS011;6581;42.662;23.402;2022-08-14T03:39:58;22.80;;;20.08;;
13028;SDS011;6581;42.662;23.402;2022-08-14T03:42:26;20.77;;;18.58;;
13028;SDS011;6581;42.662;23.402;2022-08-14T03:44:53;21.75;;;19.45;;
13028;SDS011;6581;42.662;23.402;2022-08-14T03:47:21;22.23;;;19.38;;
13028;SDS011;6581;42.662;23.402;2022-08-14T03:49:48;24.02;;;20.33;;
13028;SDS011;6581;42.662;23.402;2022-08-14T03:52:18;24.83;;;20.55;;
13028;SDS011;6581;42.662;23.402;2022-08-14T03:54:45;22.95;;;20.48;;
13028;SDS011;6581;42.662;23.402;2022-08-14T03:57:13;26.05;;;21.08;;
13028;SDS011;6581;42.662;23.402;2022-08-14T03:59:41;24.02;;;21.55;;
13028;SDS011;6581;42.662;23.402;2022-08-14T04:02:08;26.80;;;22.58;;
13028;SDS011;6581;42.662;23.402;2022-08-14T04:04:36;26.52;;;23.65;;
13028;SDS011;6581;42.662;23.402;2022-08-14T04:07:03;28.48;;;23.60;;
13028;SDS011;6581;42.662;23.402;2022-08-14T04:09:32;33.30;;;25.08;;
13028;SDS011;6581;42.662;23.402;2022-08-14T04:11:59;32.55;;;26.45;;
13028;SDS011;6581;42.662;23.402;2022-08-14T04:14:27;33.33;;;26.70;;
13028;SDS011;6581;42.662;23.402;2022-08-14T04:16:54;36.67;;;25.33;;
13028;SDS011;6581;42.662;23.402;2022-08-14T04:19:21;35.28;;;25.98;;
13028;SDS011;6581;42.662;23.402;2022-08-14T04:21:48;33.17;;;25.17;;
13028;SDS011;6581;42.662;23.402;2022-08-14T04:24:16;35.13;;;26.92;;
13028;SDS011;6581;42.662;23.402;2022-08-14T04:26:45;33.28;;;25.70;;
13028;SDS011;6581;42.662;23.402;2022-08-14T04:29:12;32.70;;;25.50;;
13028;SDS011;6581;42.662;23.402;2022-08-14T04:31:39;31.83;;;25.08;;
13028;SDS011;6581;42.662;23.402;2022-08-14T04:34:07;34.38;;;25.98;;
13028;SDS011;6581;42.662;23.402;2022-08-14T04:36:34;33.22;;;25.23;;
13028;SDS011;6581;42.662;23.402;2022-08-14T04:39:22;31.77;;;23.55;;
13028;SDS011;6581;42.662;23.402;2022-08-14T04:42:09;25.80;;;20.67;;
13028;SDS011;6581;42.662;23.402;2022-08-14T04:44:52;22.42;;;19.52;;
13028;SDS011;6581;42.662;23.402;2022-08-14T04:47:19;21.17;;;18.90;;
13028;SDS011;6581;42.662;23.402;2022-08-14T04:50:04;23.95;;;20.17;;
13028;SDS011;6581;42.662;23.402;2022-08-14T04:52:32;25.08;;;20.55;;
13028;SDS011;6581;42.662;23.402;2022-08-14T04:54:59;30.05;;;25.38;;
13028;SDS011;6581;42.662;23.402;2022-08-14T04:57:28;31.63;;;27.00;;
13028;SDS011;6581;42.662;23.402;2022-08-14T04:59:55;33.35;;;26.98;;
13028;SDS011;6581;42.662;23.402;2022-08-14T05:02:23;27.83;;;24.83;;
13028;SDS011;6581;42.662;23.402;2022-08-14T05:04:51;30.17;;;24.63;;
13028;SDS011;6581;42.662;23.402;2022-08-14T05:07:19;27.52;;;24.02;;
13028;SDS011;6581;42.662;23.402;2022-08-14T05:09:46;25.45;;;22.75;;
13028;SDS011;6581;42.662;23.402;2022-08-14T05:12:13;26.23;;;22.60;;
13028;SDS011;6581;42.662;23.402;2022-08-14T05:14:42;24.55;;;20.95;;
13028;SDS011;6581;42.662;23.402;2022-08-14T05:17:11;23.77;;;20.13;;
13028;SDS011;6581;42.662;23.402;2022-08-14T05:19:39;23.77;;;20.85;;
13028;SDS011;6581;42.662;23.402;2022-08-14T05:22:31;24.23;;;20.70;;
13028;SDS011;6581;42.662;23.402;2022-08-14T05:24:58;28.17;;;21.40;;
13028;SDS011;6581;42.662;23.402;2022-08-14T05:27:26;23.98;;;20.20;;
13028;SDS011;6581;42.662;23.402;2022-08-14T05:29:54;24.17;;;21.25;;
13028;SDS011;6581;42.662;23.402;2022-08-14T05:32:23;27.45;;;21.77;;
13028;SDS011;6581;42.662;23.402;2022-08-14T05:34:50;28.23;;;22.92;;
13028;SDS011;6581;42.662;23.402;2022-08-14T05:37:18;24.55;;;21.70;;
13028;SDS011;6581;42.662;23.402;2022-08-14T05:39:45;28.30;;;21.77;;
13028;SDS011;6581;42.662;23.402;2022-08-14T05:42:12;25.85;;;21.77;;
13028;SDS011;6581;42.662;23.402;2022-08-14T05:44:39;24.55;;;21.92;;
13028;SDS011;6581;42.662;23.402;2022-08-14T05:47:08;26.85;;;21.50;;
13028;SDS011;6581;42.662;23.402;2022-08-14T05:49:36;24.00;;;21.08;;
13028;SDS011;6581;42.662;23.402;2022-08-14T05:52:03;26.80;;;21.85;;
13028;SDS011;6581;42.662;23.402;2022-08-14T05:54:30;26.83;;;21.25;;
13028;SDS011;6581;42.662;23.402;2022-08-14T05:56:58;27.58;;;22.55;;
13028;SDS011;6581;42.662;23.402;2022-08-14T05:59:25;25.63;;;22.67;;
13028;SDS011;6581;42.662;23.402;2022-08-14T06:01:52;26.58;;;21.98;;
13028;SDS011;6581;42.662;23.402;2022-08-14T06:04:20;27.15;;;23.10;;
13028;SDS011;6581;42.662;23.402;2022-08-14T06:06:48;26.95;;;22.27;;
13028;SDS011;6581;42.662;23.402;2022-08-14T06:09:15;27.75;;;23.77;;
13028;SDS011;6581;42.662;23.402;2022-08-14T06:11:43;25.90;;;22.73;;
13028;SDS011;6581;42.662;23.402;2022-08-14T06:14:10;25.40;;;22.27;;
13028;SDS011;6581;42.662;23.402;2022-08-14T06:16:38;24.02;;;21.33;;
13028;SDS011;6581;42.662;23.402;2022-08-14T06:19:07;29.17;;;22.17;;
13028;SDS011;6581;42.662;23.402;2022-08-14T06:21:36;24.88;;;22.27;;
13028;SDS011;6581;42.662;23.402;2022-08-14T06:24:03;26.38;;;22.35;;
13028;SDS011;6581;42.662;23.402;2022-08-14T06:26:31;27.38;;;23.02;;
13028;SDS011;6581;42.662;23.402;2022-08-14T06:28:59;23.42;;;20.95;;
13028;SDS011;6581;42.662;23.402;2022-08-14T06:31:26;26.92;;;22.05;;
13028;SDS011;6581;42.662;23.402;2022-08-14T06:33:53;24.92;;;22.10;;
13028;SDS011;6581;42.662;23.402;2022-08-14T06:36:20;24.52;;;21.85;;
13028;SDS011;6581;42.662;23.402;2022-08-14T06:38:51;25.73;;;21.67;;
13028;SDS011;6581;42.662;23.402;2022-08-14T06:41:19;25.05;;;22.23;;
13028;SDS011;6581;42.662;23.402;2022-08-14T06:43:48;25.42;;;22.83;;
13028;SDS011;6581;42.662;23.402;2022-08-14T06:46:40;29.08;;;24.17;;
13028;SDS011;6581;42.662;23.402;2022-08-14T06:49:07;27.55;;;23.30;;
13028;SDS011;6581;42.662;23.402;2022-08-14T06:51:35;29.55;;;26.33;;
13028;SDS011;6581;42.662;23.402;2022-08-14T06:54:34;26.80;;;23.90;;
13028;SDS011;6581;42.662;23.402;2022-08-14T06:57:01;61.13;;;49.78;;
13028;SDS011;6581;42.662;23.402;2022-08-14T06:59:29;31.90;;;26.67;;
13028;SDS011;6581;42.662;23.402;2022-08-14T07:01:56;33.95;;;28.65;;
13028;SDS011;6581;42.662;23.402;2022-08-14T07:04:41;31.42;;;25.30;;
13028;SDS011;6581;42.662;23.402;2022-08-14T07:07:33;32.00;;;27.55;;
13028;SDS011;6581;42.662;23.402;2022-08-14T07:10:03;35.50;;;30.23;;
13028;SDS011;6581;42.662;23.402;2022-08-14T07:12:31;35.30;;;30.63;;
13028;SDS011;6581;42.662;23.402;2022-08-14T07:14:59;33.70;;;26.10;;
13028;SDS011;6581;42.662;23.402;2022-08-14T07:17:26;30.67;;;26.23;;
13028;SDS011;6581;42.662;23.402;2022-08-14T07:19:53;30.23;;;26.67;;
13028;SDS011;6581;42.662;23.402;2022-08-14T07:22:21;34.72;;;31.00;;
13028;SDS011;6581;42.662;23.402;2022-08-14T07:24:49;35.90;;;30.85;;
13028;SDS011;6581;42.662;23.402;2022-08-14T07:27:18;30.10;;;26.80;;
13028;SDS011;6581;42.662;23.402;2022-08-14T07:29:45;27.77;;;24.92;;
13028;SDS011;6581;42.662;23.402;2022-08-14T07:32:12;26.77;;;23.90;;
13028;SDS011;6581;42.662;23.402;2022-08-14T07:34:39;26.60;;;23.77;;
13028;SDS011;6581;42.662;23.402;2022-08-14T07:37:07;27.23;;;24.42;;
13028;SDS011;6581;42.662;23.402;2022-08-14T07:39:34;25.75;;;23.05;;
13028;SDS011;6581;42.662;23.402;2022-08-14T07:42:02;25.27;;;22.67;;
13028;SDS011;6581;42.662;23.402;2022-08-14T07:44:31;25.20;;;22.60;;
13028;SDS011;6581;42.662;23.402;2022-08-14T07:47:01;23.50;;;21.17;;
13028;SDS011;6581;42.662;23.402;2022-08-14T07:49:30;24.08;;;21.52;;
13028;SDS011;6581;42.662;23.402;2022-08-14T07:52:00;39.97;;;34.60;;
13028;SDS011;6581;42.662;23.402;2022-08-14T07:54:28;26.25;;;22.48;;
13028;SDS011;6581;42.662;23.402;2022-08-14T07:56:56;23.08;;;20.73;;
13028;SDS011;6581;42.662;23.402;2022-08-14T07:59:24;23.00;;;20.55;;
13028;SDS011;6581;42.662;23.402;2022-08-14T08:01:52;23.23;;;20.95;;
13028;SDS011;6581;42.662;23.402;2022-08-14T08:04:21;20.75;;;18.55;;
13028;SDS011;6581;42.662;23.402;2022-08-14T08:06:52;19.77;;;18.00;;
13028;SDS011;6581;42.662;23.402;2022-08-14T08:09:19;20.65;;;18.65;;
13028;SDS011;6581;42.662;23.402;2022-08-14T08:11:52;19.45;;;17.50;;
13028;SDS011;6581;42.662;23.402;2022-08-14T08:14:21;29.40;;;26.48;;
13028;SDS011;6581;42.662;23.402;2022-08-14T08:16:48;26.10;;;23.48;;
13028;SDS011;6581;42.662;23.402;2022-08-14T08:19:17;24.00;;;21.50;;
13028;SDS011;6581;42.662;23.402;2022-08-14T08:21:45;20.80;;;18.73;;
13028;SDS011;6581;42.662;23.402;2022-08-14T08:24:12;19.25;;;17.30;;
13028;SDS011;6581;42.662;23.402;2022-08-14T08:26:40;16.58;;;15.02;;
13028;SDS011;6581;42.662;23.402;2022-08-14T08:29:07;15.32;;;13.80;;
13028;SDS011;6581;42.662;23.402;2022-08-14T08:31:44;17.98;;;16.27;;
13028;SDS011;6581;42.662;23.402;2022-08-14T08:37:11;22.13;;;19.90;;
13028;SDS011;6581;42.662;23.402;2022-08-14T08:39:42;24.48;;;21.38;;
13028;SDS011;6581;42.662;23.402;2022-08-14T08:42:10;17.60;;;15.90;;
13028;SDS011;6581;42.662;23.402;2022-08-14T08:44:38;16.95;;;15.45;;
13028;SDS011;6581;42.662;23.402;2022-08-14T08:47:36;19.83;;;17.95;;
13028;SDS011;6581;42.662;23.402;2022-08-14T08:53:00;15.45;;;14.05;;
13028;SDS011;6581;42.662;23.402;2022-08-14T08:55:29;14.45;;;13.15;;
13028;SDS011;6581;42.662;23.402;2022-08-14T08:58:00;10.50;;;9.57;;
13028;SDS011;6581;42.662;23.402;2022-08-14T09:00:30;9.75;;;8.90;;
13028;SDS011;6581;42.662;23.402;2022-08-14T09:03:00;9.73;;;8.57;;
13028;SDS011;6581;42.662;23.402;2022-08-14T09:05:32;8.65;;;7.85;;
13028;SDS011;6581;42.662;23.402;2022-08-14T09:08:27;8.80;;;8.00;;
13028;SDS011;6581;42.662;23.402;2022-08-14T09:10:56;7.53;;;6.93;;
13028;SDS011;6581;42.662;23.402;2022-08-14T09:13:25;7.68;;;6.88;;
13028;SDS011;6581;42.662;23.402;2022-08-14T09:15:53;7.68;;;7.10;;
13028;SDS011;6581;42.662;23.402;2022-08-14T09:18:21;7.75;;;7.05;;
13028;SDS011;6581;42.662;23.402;2022-08-14T09:20:52;7.53;;;6.82;;
13028;SDS011;6581;42.662;23.402;2022-08-14T09:23:21;7.88;;;7.28;;
13028;SDS011;6581;42.662;23.402;2022-08-14T09:25:49;7.88;;;7.18;;
13028;SDS011;6581;42.662;23.402;2022-08-14T09:28:20;7.63;;;7.03;;
13028;SDS011;6581;42.662;23.402;2022-08-14T09:30:48;7.50;;;6.80;;
13028;SDS011;6581;42.662;23.402;2022-08-14T09:33:28;8.30;;;7.63;;
13028;SDS011;6581;42.662;23.402;2022-08-14T09:36:14;8.02;;;7.43;;
13028;SDS011;6581;42.662;23.402;2022-08-14T09:38:56;7.85;;;7.22;;
13028;SDS011;6581;42.662;23.402;2022-08-14T09:41:33;8.98;;;8.07;;
13028;SDS011;6581;42.662;23.402;2022-08-14T09:44:41;8.48;;;7.70;;
13028;SDS011;6581;42.662;23.402;2022-08-14T09:47:13;8.70;;;8.00;;
13028;SDS011;6581;42.662;23.402;2022-08-14T09:49:41;8.52;;;7.72;;
13028;SDS011;6581;42.662;23.402;2022-08-14T09:52:10;10.18;;;8.23;;
13028;SDS011;6581;42.662;23.402;2022-08-14T09:54:39;9.43;;;8.60;;
13028;SDS011;6581;42.662;23.402;2022-08-14T09:57:08;8.52;;;7.70;;
13028;SDS011;6581;42.662;23.402;2022-08-14T09:59:39;8.07;;;7.47;;
13028;SDS011;6581;42.662;23.402;2022-08-14T10:02:24;8.57;;;7.80;;
13028;SDS011;6581;42.662;23.402;2022-08-14T10:04:59;7.20;;;6.60;;
13028;SDS011;6581;42.662;23.402;2022-08-14T10:07:30;7.45;;;6.85;;
13028;SDS011;6581;42.662;23.402;2022-08-14T10:09:59;7.63;;;7.03;;
13028;SDS011;6581;42.662;23.402;2022-08-14T10:12:46;10.02;;;9.23;;
13028;SDS011;6581;42.662;23.402;2022-08-14T10:16:04;8.20;;;7.60;;
13028;SDS011;6581;42.662;23.402;2022-08-14T10:21:27;8.52;;;7.82;;
13028;SDS011;6581;42.662;23.402;2022-08-14T10:23:56;8.82;;;7.93;;
13028;SDS011;6581;42.662;23.402;2022-08-14T10:26:23;9.40;;;8.60;;
13028;SDS011;6581;42.662;23.402;2022-08-14T10:28:52;9.70;;;8.90;;
13028;SDS011;6581;42.662;23.402;2022-08-14T10:31:21;12.57;;;11.45;;
13028;SDS011;6581;42.662;23.402;2022-08-14T10:34:00;14.63;;;13.23;;
13028;SDS011;6581;42.662;23.402;2022-08-14T10:36:30;8.00;;;7.30;;
13028;SDS011;6581;42.662;23.402;2022-08-14T10:39:03;9.88;;;9.07;;
13028;SDS011;6581;42.662;23.402;2022-08-14T10:41:36;10.30;;;9.30;;
13028;SDS011;6581;42.662;23.402;2022-08-14T10:44:06;9.00;;;8.20;;
13028;SDS011;6581;42.662;23.402;2022-08-14T10:46:40;8.88;;;8.13;;
13028;SDS011;6581;42.662;23.402;2022-08-14T10:49:15;9.35;;;8.52;;
13028;SDS011;6581;42.662;23.402;2022-08-14T10:51:53;9.43;;;8.63;;
13028;SDS011;6581;42.662;23.402;2022-08-14T10:54:29;7.82;;;7.22;;
13028;SDS011;6581;42.662;23.402;2022-08-14T10:57:14;7.78;;;7.00;;
13028;SDS011;6581;42.662;23.402;2022-08-14T10:59:45;6.18;;;5.68;;
13028;SDS011;6581;42.662;23.402;2022-08-14T11:02:18;5.72;;;5.32;;
13028;SDS011;6581;42.662;23.402;2022-08-14T11:04:57;6.00;;;5.47;;
13028;SDS011;6581;42.662;23.402;2022-08-14T11:07:31;7.07;;;6.03;;
13028;SDS011;6581;42.662;23.402;2022-08-14T11:10:01;6.30;;;5.80;;
13028;SDS011;6581;42.662;23.402;2022-08-14T11:12:40;6.70;;;6.20;;
13028;SDS011;6581;42.662;23.402;2022-08-14T11:15:14;6.30;;;5.80;;
13028;SDS011;6581;42.662;23.402;2022-08-14T11:17:43;11.88;;;10.77;;
13028;SDS011;6581;42.662;23.402;2022-08-14T11:20:12;7.60;;;6.90;;
13028;SDS011;6581;42.662;23.402;2022-08-14T11:22:40;6.65;;;6.10;;
13028;SDS011;6581;42.662;23.402;2022-08-14T11:25:10;6.10;;;5.65;;
13028;SDS011;6581;42.662;23.402;2022-08-14T11:27:39;8.18;;;7.47;;
13028;SDS011;6581;42.662;23.402;2022-08-14T11:30:08;6.10;;;5.60;;
13028;SDS011;6581;42.662;23.402;2022-08-14T11:32:38;7.10;;;6.40;;
13028;SDS011;6581;42.662;23.402;2022-08-14T11:35:10;6.57;;;6.07;;
13028;SDS011;6581;42.662;23.402;2022-08-14T11:37:50;5.93;;;5.53;;
13028;SDS011;6581;42.662;23.402;2022-08-14T11:40:21;7.63;;;7.00;;
13028;SDS011;6581;42.662;23.402;2022-08-14T11:42:51;7.10;;;6.45;;
13028;SDS011;6581;42.662;23.402;2022-08-14T11:45:20;6.70;;;6.20;;
13028;SDS011;6581;42.662;23.402;2022-08-14T11:47:49;7.53;;;6.93;;
13028;SDS011;6581;42.662;23.402;2022-08-14T11:50:19;6.65;;;6.15;;
13028;SDS011;6581;42.662;23.402;2022-08-14T11:52:48;10.10;;;9.20;;
13028;SDS011;6581;42.662;23.402;2022-08-14T11:55:18;7.03;;;6.43;;
13028;SDS011;6581;42.662;23.402;2022-08-14T11:57:57;7.70;;;7.00;;
13028;SDS011;6581;42.662;23.402;2022-08-14T12:00:27;8.85;;;7.93;;
13028;SDS011;6581;42.662;23.402;2022-08-14T12:02:55;7.60;;;6.90;;
13028;SDS011;6581;42.662;23.402;2022-08-14T12:05:27;7.03;;;6.40;;
13028;SDS011;6581;42.662;23.402;2022-08-14T12:07:56;11.15;;;10.10;;
13028;SDS011;6581;42.662;23.402;2022-08-14T12:10:25;6.45;;;5.95;;
13028;SDS011;6581;42.662;23.402;2022-08-14T12:12:55;6.28;;;5.78;;
13028;SDS011;6581;42.662;23.402;2022-08-14T12:15:32;8.93;;;8.23;;
13028;SDS011;6581;42.662;23.402;2022-08-14T12:18:02;6.28;;;5.88;;
13028;SDS011;6581;42.662;23.402;2022-08-14T12:20:31;7.00;;;6.40;;
13028;SDS011;6581;42.662;23.402;2022-08-14T12:23:02;6.90;;;6.40;;
13028;SDS011;6581;42.662;23.402;2022-08-14T12:25:32;6.82;;;6.32;;
13028;SDS011;6581;42.662;23.402;2022-08-14T12:28:02;7.05;;;6.55;;
13028;SDS011;6581;42.662;23.402;2022-08-14T12:30:38;8.95;;;8.23;;
13028;SDS011;6581;42.662;23.402;2022-08-14T12:33:17;7.65;;;7.05;;
13028;SDS011;6581;42.662;23.402;2022-08-14T12:35:50;8.40;;;7.57;;
13028;SDS011;6581;42.662;23.402;2022-08-14T12:38:29;7.85;;;7.22;;
13028;SDS011;6581;42.662;23.402;2022-08-14T12:40:58;7.82;;;7.13;;
13028;SDS011;6581;42.662;23.402;2022-08-14T12:43:28;9.85;;;8.93;;
13028;SDS011;6581;42.662;23.402;2022-08-14T12:45:56;10.02;;;9.13;;
13028;SDS011;6581;42.662;23.402;2022-08-14T12:48:24;9.10;;;8.20;;
13028;SDS011;6581;42.662;23.402;2022-08-14T12:50:54;9.20;;;8.40;;
13028;SDS011;6581;42.662;23.402;2022-08-14T12:53:31;9.00;;;8.25;;
13028;SDS011;6581;42.662;23.402;2022-08-14T12:56:00;9.27;;;8.57;;
13028;SDS011;6581;42.662;23.402;2022-08-14T12:58:30;11.30;;;10.05;;
13028;SDS011;6581;42.662;23.402;2022-08-14T13:00:58;10.68;;;9.68;;
13028;SDS011;6581;42.662;23.402;2022-08-14T13:04:01;9.77;;;8.98;;
13028;SDS011;6581;42.662;23.402;2022-08-14T13:06:32;10.88;;;9.90;;
13028;SDS011;6581;42.662;23.402;2022-08-14T13:09:02;11.32;;;10.38;;
13028;SDS011;6581;42.662;23.402;2022-08-14T13:11:33;10.95;;;10.02;;
13028;SDS011;6581;42.662;23.402;2022-08-14T13:14:06;11.80;;;10.73;;
13028;SDS011;6581;42.662;23.402;2022-08-14T13:16:34;14.27;;;12.98;;
13028;SDS011;6581;42.662;23.402;2022-08-14T13:19:02;14.38;;;12.90;;
13028;SDS011;6581;42.662;23.402;2022-08-14T13:21:30;12.40;;;11.40;;
13028;SDS011;6581;42.662;23.402;2022-08-14T13:23:58;10.80;;;9.80;;
13028;SDS011;6581;42.662;23.402;2022-08-14T13:26:28;10.48;;;9.55;;
13028;SDS011;6581;42.662;23.402;2022-08-14T13:28:57;12.50;;;11.40;;
13028;SDS011;6581;42.662;23.402;2022-08-14T13:31:29;12.27;;;11.15;;
13028;SDS011;6581;42.662;23.402;2022-08-14T13:33:59;13.45;;;12.07;;
13028;SDS011;6581;42.662;23.402;2022-08-14T13:36:28;15.25;;;13.75;;
13028;SDS011;6581;42.662;23.402;2022-08-14T13:39:21;13.50;;;12.25;;
13028;SDS011;6581;42.662;23.402;2022-08-14T13:41:50;14.35;;;12.93;;
13028;SDS011;6581;42.662;23.402;2022-08-14T13:44:17;13.88;;;12.60;;
13028;SDS011;6581;42.662;23.402;2022-08-14T13:46:48;13.65;;;12.30;;
13028;SDS011;6581;42.662;23.402;2022-08-14T13:49:15;12.82;;;11.55;;
13028;SDS011;6581;42.662;23.402;2022-08-14T13:51:46;13.38;;;11.98;;
13028;SDS011;6581;42.662;23.402;2022-08-14T13:54:16;15.13;;;13.82;;
13028;SDS011;6581;42.662;23.402;2022-08-14T13:56:46;14.73;;;13.30;;
13028;SDS011;6581;42.662;23.402;2022-08-14T13:59:14;16.00;;;14.57;;
13028;SDS011;6581;42.662;23.402;2022-08-14T14:01:41;16.10;;;14.60;;
13028;SDS011;6581;42.662;23.402;2022-08-14T14:04:13;14.88;;;13.57;;
13028;SDS011;6581;42.662;23.402;2022-08-14T14:06:42;15.30;;;13.90;;
13028;SDS011;6581;42.662;23.402;2022-08-14T14:09:13;15.82;;;14.32;;
13028;SDS011;6581;42.662;23.402;2022-08-14T14:11:44;13.93;;;12.73;;
13028;SDS011;6581;42.662;23.402;2022-08-14T14:14:12;16.25;;;14.70;;
13028;SDS011;6581;42.662;23.402;2022-08-14T14:16:40;17.92;;;16.17;;
13028;SDS011;6581;42.662;23.402;2022-08-14T14:19:14;11.60;;;10.57;;
13028;SDS011;6581;42.662;23.402;2022-08-14T14:21:44;11.88;;;10.88;;
13028;SDS011;6581;42.662;23.402;2022-08-14T14:24:15;14.15;;;12.50;;
13028;SDS011;6581;42.662;23.402;2022-08-14T14:26:45;11.95;;;10.95;;
13028;SDS011;6581;42.662;23.402;2022-08-14T14:29:14;11.73;;;10.68;;
13028;SDS011;6581;42.662;23.402;2022-08-14T14:31:44;12.50;;;11.27;;
13028;SDS011;6581;42.662;23.402;2022-08-14T14:34:15;13.70;;;12.38;;
13028;SDS011;6581;42.662;23.402;2022-08-14T14:36:43;11.55;;;10.55;;
13028;SDS011;6581;42.662;23.402;2022-08-14T14:39:12;12.10;;;10.90;;
13028;SDS011;6581;42.662;23.402;2022-08-14T14:41:41;11.55;;;10.57;;
13028;SDS011;6581;42.662;23.402;2022-08-14T14:44:11;13.38;;;12.10;;
13028;SDS011;6581;42.662;23.402;2022-08-14T14:46:39;13.90;;;11.25;;
13028;SDS011;6581;42.662;23.402;2022-08-14T14:49:14;11.30;;;10.30;;
13028;SDS011;6581;42.662;23.402;2022-08-14T14:51:47;11.40;;;10.40;;
13028;SDS011;6581;42.662;23.402;2022-08-14T14:54:16;12.25;;;11.05;;
13028;SDS011;6581;42.662;23.402;2022-08-14T14:56:46;12.07;;;10.95;;
13028;SDS011;6581;42.662;23.402;2022-08-14T14:59:16;19.00;;;17.10;;